Time;durP1;ratioP1;P1;durP2;ratioP2;P2;SDS_P1;SDS_P2;PMS_P1;PMS_P2;Temp;Humidity;BMP_temperature;BMP_pressure;BME280_temperature;BME280_humidity;BME280_pressure;Samples;Min_cycle;Max_cycle;Signal;HPM_P1;HPM_P2
2024/03/05 00:01:14;;;;;;;53.50;29.00;;;;;;;;;;4990007;28;20039;-77
2024/03/05 00:03:40;;;;;;;51.45;28.58;;;;;;;;;;4990233;28;20288;-77
2024/03/05 00:06:06;;;;;;;51.40;30.88;;;;;;;;;;4991060;28;20038;-77
2024/03/05 00:08:31;;;;;;;51.53;29.77;;;;;;;;;;4991412;28;20668;-77
2024/03/05 00:10:56;;;;;;;50.92;30.02;;;;;;;;;;4992429;28;20122;-77
2024/03/05 00:13:22;;;;;;;54.50;31.52;;;;;;;;;;4993324;28;20402;-77
2024/03/05 00:15:47;;;;;;;50.28;30.63;;;;;;;;;;4993655;28;20157;-77
2024/03/05 00:18:12;;;;;;;56.72;33.78;;;;;;;;;;4996133;28;20031;-77
2024/03/05 00:20:37;;;;;;;53.73;31.37;;;;;;;;;;4993151;28;20042;-77
2024/03/05 00:23:02;;;;;;;46.42;28.10;;;;;;;;;;4993201;28;20272;-76
2024/03/05 00:25:28;;;;;;;53.97;31.08;;;;;;;;;;4996341;28;20041;-77
2024/03/05 00:27:53;;;;;;;48.50;30.02;;;;;;;;;;4996311;28;20034;-76
2024/03/05 00:30:18;;;;;;;43.50;27.45;;;;;;;;;;4993457;28;20038;-77
2024/03/05 00:32:44;;;;;;;47.92;27.40;;;;;;;;;;4993034;28;20221;-76
2024/03/05 00:35:10;;;;;;;46.75;26.20;;;;;;;;;;4993370;28;20113;-76
2024/03/05 00:37:38;;;;;;;46.13;25.38;;;;;;;;;;4993665;28;20125;-77
2024/03/05 00:40:07;;;;;;;42.30;26.27;;;;;;;;;;4993345;28;20037;-77
2024/03/05 00:42:32;;;;;;;44.40;27.08;;;;;;;;;;4992020;28;20040;-76
2024/03/05 00:44:58;;;;;;;47.70;27.35;;;;;;;;;;4992996;28;20117;-76
2024/03/05 00:47:23;;;;;;;37.67;23.67;;;;;;;;;;4994359;28;20396;-76
2024/03/05 00:49:48;;;;;;;40.38;24.17;;;;;;;;;;4993210;28;20034;-76
2024/03/05 00:52:13;;;;;;;43.35;26.92;;;;;;;;;;4992717;28;20117;-76
2024/03/05 00:54:39;;;;;;;39.08;23.88;;;;;;;;;;4989933;28;20034;-76
2024/03/05 00:57:04;;;;;;;40.47;23.42;;;;;;;;;;4995016;28;20038;-76
2024/03/05 00:59:29;;;;;;;39.38;24.15;;;;;;;;;;4992691;28;20458;-77
2024/03/05 01:01:55;;;;;;;39.38;23.08;;;;;;;;;;4994277;28;20041;-77
2024/03/05 01:04:20;;;;;;;36.00;22.45;;;;;;;;;;4992757;28;20033;-77
2024/03/05 01:06:46;;;;;;;36.25;22.25;;;;;;;;;;4993113;28;20062;-77
2024/03/05 01:09:19;;;;;;;35.15;22.83;;;;;;;;;;4995714;28;20034;-77
2024/03/05 01:11:44;;;;;;;40.53;23.40;;;;;;;;;;4990377;28;20037;-77
2024/03/05 01:14:10;;;;;;;35.60;22.15;;;;;;;;;;4992769;28;20053;-77
2024/03/05 01:16:36;;;;;;;39.63;23.13;;;;;;;;;;4993079;28;20046;-77
2024/03/05 01:19:01;;;;;;;36.25;22.67;;;;;;;;;;4994069;28;20041;-77
2024/03/05 01:21:26;;;;;;;33.05;22.13;;;;;;;;;;4991232;28;20537;-77
2024/03/05 01:23:53;;;;;;;40.47;22.50;;;;;;;;;;4992307;28;20034;-77
2024/03/05 01:26:18;;;;;;;36.30;22.40;;;;;;;;;;4992515;28;20061;-77
2024/03/05 01:28:43;;;;;;;34.60;20.83;;;;;;;;;;4994883;28;20045;-77
2024/03/05 01:31:08;;;;;;;39.55;22.08;;;;;;;;;;4992140;28;20030;-77
2024/03/05 01:33:35;;;;;;;35.97;22.10;;;;;;;;;;4993901;28;20065;-77
2024/03/05 01:36:01;;;;;;;41.33;23.95;;;;;;;;;;4993033;28;20045;-77
2024/03/05 01:38:27;;;;;;;37.65;23.08;;;;;;;;;;4994389;28;20034;-77
2024/03/05 01:40:52;;;;;;;38.88;23.00;;;;;;;;;;4992126;28;20030;-77
2024/03/05 01:43:19;;;;;;;36.63;20.40;;;;;;;;;;4991636;28;20499;-77
2024/03/05 01:45:44;;;;;;;35.58;21.60;;;;;;;;;;4992048;28;20030;-77
2024/03/05 01:48:10;;;;;;;40.40;23.50;;;;;;;;;;4994155;28;20053;-77
2024/03/05 01:50:36;;;;;;;32.20;19.88;;;;;;;;;;4991750;28;20066;-77
2024/03/05 01:53:02;;;;;;;42.38;23.90;;;;;;;;;;4990238;28;20113;-77
2024/03/05 01:55:28;;;;;;;34.47;21.23;;;;;;;;;;4991522;28;20035;-77
2024/03/05 01:57:54;;;;;;;34.08;20.85;;;;;;;;;;4993412;28;20026;-77
2024/03/05 02:00:20;;;;;;;34.00;21.20;;;;;;;;;;4991755;28;20045;-77
2024/03/05 02:02:46;;;;;;;38.80;23.70;;;;;;;;;;4991510;28;20069;-77
2024/03/05 02:05:12;;;;;;;35.45;20.83;;;;;;;;;;4995303;28;20070;-77
2024/03/05 02:07:38;;;;;;;35.13;20.83;;;;;;;;;;4991757;28;20030;-76
2024/03/05 02:10:07;;;;;;;33.38;20.80;;;;;;;;;;4991390;28;20036;-76
2024/03/05 02:12:33;;;;;;;33.67;20.50;;;;;;;;;;4990581;28;20495;-76
2024/03/05 02:14:58;;;;;;;33.88;20.38;;;;;;;;;;4991270;28;20069;-76
2024/03/05 02:17:23;;;;;;;30.98;19.20;;;;;;;;;;4993459;28;20394;-76
2024/03/05 02:19:52;;;;;;;39.63;22.80;;;;;;;;;;4991416;28;20101;-76
2024/03/05 02:22:17;;;;;;;39.00;22.67;;;;;;;;;;4990924;28;20490;-76
2024/03/05 02:24:42;;;;;;;34.40;20.27;;;;;;;;;;4994453;28;20081;-76
2024/03/05 02:27:08;;;;;;;33.03;19.35;;;;;;;;;;4993106;28;20331;-76
2024/03/05 02:29:38;;;;;;;37.03;21.60;;;;;;;;;;4992307;28;20045;-76
2024/03/05 02:32:06;;;;;;;33.83;22.15;;;;;;;;;;4990905;28;20125;-77
2024/03/05 02:34:31;;;;;;;36.50;21.58;;;;;;;;;;4990530;28;20046;-77
2024/03/05 02:36:57;;;;;;;32.30;19.70;;;;;;;;;;4991191;28;20096;-76
2024/03/05 02:39:23;;;;;;;32.50;20.23;;;;;;;;;;4988172;28;20030;-76
2024/03/05 02:41:48;;;;;;;37.60;21.58;;;;;;;;;;4994204;28;20049;-76
2024/03/05 02:44:13;;;;;;;33.15;20.77;;;;;;;;;;4990751;28;20073;-77
2024/03/05 02:46:38;;;;;;;34.10;20.00;;;;;;;;;;4990957;28;20036;-78
2024/03/05 02:49:04;;;;;;;37.28;22.25;;;;;;;;;;4992209;28;20081;-77
2024/03/05 02:51:29;;;;;;;32.95;19.40;;;;;;;;;;4990310;28;20030;-77
2024/03/05 02:53:55;;;;;;;35.83;21.25;;;;;;;;;;4990747;28;20125;-77
2024/03/05 02:56:20;;;;;;;38.85;22.10;;;;;;;;;;4990809;28;20078;-77
2024/03/05 02:58:45;;;;;;;40.00;21.83;;;;;;;;;;4993375;28;20035;-77
2024/03/05 03:01:10;;;;;;;36.92;22.25;;;;;;;;;;4990378;28;20565;-78
2024/03/05 03:03:36;;;;;;;35.67;20.95;;;;;;;;;;4989905;28;20101;-77
2024/03/05 03:06:02;;;;;;;39.65;23.58;;;;;;;;;;4990714;28;20042;-77
2024/03/05 03:08:27;;;;;;;37.58;22.83;;;;;;;;;;4993200;28;20689;-77
2024/03/05 03:10:52;;;;;;;39.00;22.25;;;;;;;;;;4990725;28;20026;-77
2024/03/05 03:13:18;;;;;;;38.45;21.73;;;;;;;;;;4990503;28;20074;-78
2024/03/05 03:15:43;;;;;;;39.10;22.42;;;;;;;;;;4992038;28;20056;-76
2024/03/05 03:18:08;;;;;;;34.72;22.80;;;;;;;;;;4990735;28;20065;-76
2024/03/05 03:20:34;;;;;;;37.58;22.92;;;;;;;;;;4989144;28;20037;-76
2024/03/05 03:23:00;;;;;;;43.50;24.60;;;;;;;;;;4991302;28;20109;-76
2024/03/05 03:25:25;;;;;;;43.60;24.30;;;;;;;;;;4991215;28;20042;-76
2024/03/05 03:27:50;;;;;;;42.47;24.60;;;;;;;;;;4993563;28;20100;-76
2024/03/05 03:30:20;;;;;;;40.92;23.58;;;;;;;;;;4990562;28;20076;-77
2024/03/05 03:32:45;;;;;;;48.17;26.73;;;;;;;;;;4988516;28;20069;-77
2024/03/05 03:35:13;;;;;;;41.22;25.58;;;;;;;;;;4992310;28;20448;-77
2024/03/05 03:37:39;;;;;;;46.40;27.00;;;;;;;;;;4992366;28;20084;-76
2024/03/05 03:40:08;;;;;;;40.47;25.98;;;;;;;;;;4990471;28;20487;-76
2024/03/05 03:42:33;;;;;;;47.13;27.98;;;;;;;;;;4990010;28;20085;-76
2024/03/05 03:44:58;;;;;;;46.43;27.43;;;;;;;;;;4991080;28;20026;-76
2024/03/05 03:47:23;;;;;;;46.10;27.85;;;;;;;;;;4996182;28;20367;-77
2024/03/05 03:49:48;;;;;;;47.35;28.00;;;;;;;;;;4994458;28;20038;-76
2024/03/05 03:52:14;;;;;;;41.65;24.70;;;;;;;;;;4993598;28;20407;-77
2024/03/05 03:54:39;;;;;;;46.45;26.30;;;;;;;;;;4993755;28;20137;-76
2024/03/05 03:57:05;;;;;;;39.10;24.58;;;;;;;;;;4993535;28;20738;-76
2024/03/05 03:59:30;;;;;;;36.15;22.30;;;;;;;;;;4991975;28;20038;-76
2024/03/05 04:01:57;;;;;;;42.95;22.65;;;;;;;;;;4993562;28;20038;-76
2024/03/05 04:04:23;;;;;;;38.33;22.95;;;;;;;;;;4998009;28;20654;-77
2024/03/05 04:06:48;;;;;;;37.15;22.25;;;;;;;;;;4993849;28;20145;-76
2024/03/05 04:09:14;;;;;;;36.22;20.95;;;;;;;;;;4993787;28;20034;-76
2024/03/05 04:11:39;;;;;;;36.28;19.60;;;;;;;;;;4993164;28;20034;-77
2024/03/05 04:14:05;;;;;;;39.22;22.33;;;;;;;;;;4994791;28;20504;-78
2024/03/05 04:16:30;;;;;;;38.97;21.65;;;;;;;;;;4995297;28;20494;-78
2024/03/05 04:18:56;;;;;;;40.03;21.60;;;;;;;;;;4996911;28;20092;-77
2024/03/05 04:21:21;;;;;;;35.25;21.30;;;;;;;;;;4993519;28;20045;-78
2024/03/05 04:23:46;;;;;;;39.92;21.23;;;;;;;;;;4993590;28;20058;-78
2024/03/05 04:26:13;;;;;;;36.70;20.13;;;;;;;;;;4995543;28;20044;-78
2024/03/05 04:28:48;;;;;;;42.42;24.20;;;;;;;;;;4996601;28;20040;-78
2024/03/05 04:31:14;;;;;;;39.40;22.48;;;;;;;;;;4994688;28;20100;-79
2024/03/05 04:33:42;;;;;;;34.08;20.55;;;;;;;;;;4994777;28;20026;-78
2024/03/05 04:36:09;;;;;;;36.17;22.13;;;;;;;;;;4996251;28;20716;-78
2024/03/05 04:38:35;;;;;;;40.13;21.90;;;;;;;;;;4993942;28;20030;-78
2024/03/05 04:41:00;;;;;;;35.95;22.00;;;;;;;;;;4989748;28;20398;-78
2024/03/05 04:43:25;;;;;;;40.13;22.75;;;;;;;;;;4992604;28;20035;-78
2024/03/05 04:45:50;;;;;;;35.63;20.35;;;;;;;;;;4993940;28;20034;-78
2024/03/05 04:48:15;;;;;;;39.08;19.95;;;;;;;;;;4994727;28;20034;-78
2024/03/05 04:50:41;;;;;;;33.70;19.30;;;;;;;;;;4993525;28;20026;-78
2024/03/05 04:53:06;;;;;;;35.28;20.45;;;;;;;;;;4993675;28;20062;-78
2024/03/05 04:55:31;;;;;;;38.50;22.75;;;;;;;;;;4989303;28;20026;-78
2024/03/05 04:57:56;;;;;;;35.78;21.25;;;;;;;;;;4995900;28;20030;-78
2024/03/05 05:00:22;;;;;;;37.97;20.77;;;;;;;;;;4998358;28;20129;-79
2024/03/05 05:02:47;;;;;;;39.90;21.85;;;;;;;;;;4996304;28;20031;-79
2024/03/05 05:05:13;;;;;;;39.67;22.23;;;;;;;;;;4997008;28;20034;-79
2024/03/05 05:07:38;;;;;;;40.22;21.65;;;;;;;;;;5000605;28;20069;-79
2024/03/05 05:10:06;;;;;;;37.45;20.85;;;;;;;;;;4998797;28;20073;-79
2024/03/05 05:12:31;;;;;;;38.22;21.45;;;;;;;;;;4995655;28;20026;-78
2024/03/05 05:14:56;;;;;;;43.50;22.20;;;;;;;;;;4991863;28;20490;-77
2024/03/05 05:17:22;;;;;;;37.85;22.52;;;;;;;;;;4990872;28;20031;-77
2024/03/05 05:19:47;;;;;;;35.38;21.77;;;;;;;;;;4996019;28;20587;-77
2024/03/05 05:22:12;;;;;;;44.22;23.75;;;;;;;;;;4992123;28;20062;-77
2024/03/05 05:24:38;;;;;;;38.25;22.45;;;;;;;;;;4992060;28;20037;-77
2024/03/05 05:27:03;;;;;;;44.63;26.33;;;;;;;;;;4992659;28;20101;-77
2024/03/05 05:29:29;;;;;;;36.45;21.90;;;;;;;;;;4992770;28;20028;-76
2024/03/05 05:31:54;;;;;;;43.97;25.20;;;;;;;;;;4992065;28;20042;-77
2024/03/05 05:34:19;;;;;;;39.42;23.13;;;;;;;;;;4991344;28;20037;-77
2024/03/05 05:36:44;;;;;;;38.40;21.55;;;;;;;;;;4992277;28;20620;-77
2024/03/05 05:39:09;;;;;;;36.00;21.48;;;;;;;;;;4994002;28;20054;-77
2024/03/05 05:41:36;;;;;;;41.67;24.13;;;;;;;;;;4990389;28;20042;-77
2024/03/05 05:44:01;;;;;;;38.00;21.70;;;;;;;;;;4990426;28;20029;-77
2024/03/05 05:46:28;;;;;;;38.67;22.92;;;;;;;;;;4993164;28;20038;-77
2024/03/05 05:48:54;;;;;;;35.80;20.95;;;;;;;;;;5005107;28;20126;-77
2024/03/05 05:51:22;;;;;;;38.90;21.73;;;;;;;;;;4991370;28;20475;-77
2024/03/05 05:53:47;;;;;;;33.78;20.73;;;;;;;;;;4989340;28;20117;-76
2024/03/05 05:56:16;;;;;;;37.15;22.63;;;;;;;;;;4989944;28;20113;-77
2024/03/05 05:58:42;;;;;;;40.72;24.30;;;;;;;;;;4991292;28;20101;-76
2024/03/05 06:01:09;;;;;;;40.08;24.77;;;;;;;;;;4991168;28;20439;-78
2024/03/05 06:03:37;;;;;;;41.83;23.73;;;;;;;;;;4997424;28;20019;-77
2024/03/05 06:06:03;;;;;;;41.67;26.65;;;;;;;;;;4986961;28;20499;-76
2024/03/05 06:08:29;;;;;;;40.33;25.77;;;;;;;;;;4991465;28;20088;-76
2024/03/05 06:10:56;;;;;;;40.53;23.55;;;;;;;;;;4991357;28;20122;-76
2024/03/05 06:13:24;;;;;;;41.15;23.92;;;;;;;;;;4990970;28;20108;-76
2024/03/05 06:15:49;;;;;;;41.13;22.38;;;;;;;;;;4988615;28;20034;-77
2024/03/05 06:18:15;;;;;;;40.20;22.48;;;;;;;;;;4992854;28;20045;-76
2024/03/05 06:20:43;;;;;;;42.42;23.58;;;;;;;;;;4991161;28;20022;-76
2024/03/05 06:23:08;;;;;;;38.63;23.05;;;;;;;;;;4990199;28;20372;-76
2024/03/05 06:25:33;;;;;;;37.22;22.02;;;;;;;;;;4990946;28;20044;-76
2024/03/05 06:27:59;;;;;;;39.03;23.05;;;;;;;;;;4991246;28;20038;-76
2024/03/05 06:30:25;;;;;;;42.50;24.88;;;;;;;;;;4991153;28;20101;-76
2024/03/05 06:32:51;;;;;;;37.70;23.70;;;;;;;;;;4992119;28;20027;-76
2024/03/05 06:35:22;;;;;;;40.95;23.45;;;;;;;;;;4990896;28;20394;-76
2024/03/05 06:37:48;;;;;;;38.45;23.75;;;;;;;;;;4994078;28;20096;-76
2024/03/05 06:40:13;;;;;;;40.65;24.38;;;;;;;;;;4991324;28;20432;-76
2024/03/05 06:42:40;;;;;;;40.17;23.77;;;;;;;;;;4990239;28;20039;-76
2024/03/05 06:45:09;;;;;;;39.20;23.80;;;;;;;;;;4990722;28;20030;-75
2024/03/05 06:47:56;;;;;;;55.10;33.25;;;;;;;;;;4991943;28;20041;-76
2024/03/05 06:50:23;;;;;;;57.63;31.88;;;;;;;;;;4991322;28;20495;-76
2024/03/05 06:58:30;;;;;;;39.30;23.15;;;;;;;;;;4991239;28;20065;-76
2024/03/05 07:00:56;;;;;;;39.83;23.33;;;;;;;;;;4990706;28;20038;-77
2024/03/05 07:03:21;;;;;;;43.53;25.30;;;;;;;;;;4993292;28;20027;-76
2024/03/05 07:05:47;;;;;;;44.45;26.73;;;;;;;;;;4990501;28;20411;-76
2024/03/05 07:08:14;;;;;;;44.10;26.17;;;;;;;;;;4993587;28;20034;-76
2024/03/05 07:10:39;;;;;;;37.20;23.90;;;;;;;;;;4990404;28;20046;-76
2024/03/05 07:13:05;;;;;;;43.13;25.75;;;;;;;;;;4990235;28;20108;-76
2024/03/05 07:15:30;;;;;;;36.55;22.15;;;;;;;;;;4989684;28;20403;-77
2024/03/05 07:17:55;;;;;;;39.42;23.92;;;;;;;;;;4994513;28;20041;-76
2024/03/05 07:20:24;;;;;;;36.67;21.70;;;;;;;;;;4992153;28;20022;-76
2024/03/05 07:22:51;;;;;;;36.63;24.35;;;;;;;;;;4990898;28;20034;-76
2024/03/05 07:25:16;;;;;;;37.97;23.38;;;;;;;;;;4994537;28;20039;-76
2024/03/05 07:27:42;;;;;;;40.35;24.20;;;;;;;;;;4994933;28;20034;-76
2024/03/05 07:30:12;;;;;;;38.33;23.40;;;;;;;;;;4996667;28;20030;-76
2024/03/05 07:32:37;;;;;;;37.20;23.95;;;;;;;;;;4995467;28;20045;-76
2024/03/05 07:35:02;;;;;;;35.85;23.85;;;;;;;;;;4994055;28;20434;-76
2024/03/05 07:37:27;;;;;;;41.97;25.75;;;;;;;;;;4989421;28;20069;-76
2024/03/05 07:39:53;;;;;;;40.47;22.83;;;;;;;;;;4996083;28;20026;-76
2024/03/05 07:42:18;;;;;;;38.33;23.35;;;;;;;;;;4993983;28;20023;-76
2024/03/05 07:44:43;;;;;;;38.13;25.73;;;;;;;;;;4993818;28;20037;-76
2024/03/05 07:47:08;;;;;;;38.00;22.85;;;;;;;;;;4996580;28;20330;-76
2024/03/05 07:49:33;;;;;;;43.00;27.10;;;;;;;;;;4996805;28;20097;-76
2024/03/05 07:51:58;;;;;;;34.63;22.15;;;;;;;;;;4993797;28;20030;-76
2024/03/05 07:54:24;;;;;;;36.55;22.52;;;;;;;;;;4993884;28;20477;-76
2024/03/05 07:56:49;;;;;;;32.35;20.20;;;;;;;;;;4995075;28;20068;-76
2024/03/05 07:59:14;;;;;;;36.95;22.70;;;;;;;;;;4997731;28;20038;-76
2024/03/05 08:01:40;;;;;;;38.92;24.20;;;;;;;;;;4993327;28;20057;-76
2024/03/05 08:04:05;;;;;;;34.63;23.45;;;;;;;;;;4993852;28;20030;-76
2024/03/05 08:06:30;;;;;;;36.25;23.70;;;;;;;;;;4993836;28;20058;-76
2024/03/05 08:08:56;;;;;;;37.27;22.43;;;;;;;;;;4995080;28;20034;-76
2024/03/05 08:11:23;;;;;;;33.75;21.70;;;;;;;;;;4993196;28;20342;-77
2024/03/05 08:13:48;;;;;;;34.65;23.52;;;;;;;;;;4998323;28;20410;-76
2024/03/05 08:16:13;;;;;;;44.80;25.50;;;;;;;;;;4993534;28;20026;-75
2024/03/05 08:18:39;;;;;;;40.88;25.95;;;;;;;;;;4995279;28;20030;-76
2024/03/05 08:21:04;;;;;;;35.05;21.70;;;;;;;;;;4994604;28;20042;-76
2024/03/05 08:23:29;;;;;;;34.35;22.38;;;;;;;;;;4992945;28;20030;-76
2024/03/05 08:25:55;;;;;;;36.10;23.75;;;;;;;;;;4993269;28;20589;-76
2024/03/05 08:28:20;;;;;;;36.67;22.27;;;;;;;;;;4996285;28;20112;-76
2024/03/05 08:30:45;;;;;;;35.17;22.13;;;;;;;;;;4992923;28;20069;-76
2024/03/05 08:33:10;;;;;;;33.03;20.45;;;;;;;;;;4992886;28;20031;-76
2024/03/05 08:35:35;;;;;;;33.58;20.92;;;;;;;;;;4999784;28;20057;-76
2024/03/05 08:38:01;;;;;;;30.05;21.20;;;;;;;;;;4996572;28;20425;-76
2024/03/05 08:40:27;;;;;;;31.08;18.77;;;;;;;;;;4993618;28;20061;-77
2024/03/05 08:42:55;;;;;;;36.45;21.95;;;;;;;;;;4992794;28;20096;-76
2024/03/05 08:45:22;;;;;;;35.67;20.55;;;;;;;;;;4989383;28;20054;-76
2024/03/05 08:47:48;;;;;;;36.38;23.30;;;;;;;;;;4992402;28;20026;-76
2024/03/05 08:50:14;;;;;;;32.22;20.40;;;;;;;;;;4993355;28;20117;-76
2024/03/05 08:52:40;;;;;;;31.42;20.25;;;;;;;;;;4993591;28;20042;-76
2024/03/05 08:55:08;;;;;;;35.22;21.70;;;;;;;;;;4992747;28;20507;-76
2024/03/05 08:57:33;;;;;;;31.10;18.48;;;;;;;;;;4992814;28;20101;-76
2024/03/05 09:00:02;;;;;;;33.13;19.25;;;;;;;;;;4994642;28;20571;-76
2024/03/05 09:02:27;;;;;;;30.38;21.27;;;;;;;;;;4992416;28;20077;-76
2024/03/05 09:04:53;;;;;;;37.05;21.70;;;;;;;;;;4992701;28;20571;-76
2024/03/05 09:07:18;;;;;;;34.60;19.92;;;;;;;;;;4992874;28;20034;-76
2024/03/05 09:09:44;;;;;;;32.63;22.92;;;;;;;;;;4996794;28;20351;-76
2024/03/05 09:12:12;;;;;;;29.88;20.10;;;;;;;;;;4998164;28;20084;-76
2024/03/05 09:14:37;;;;;;;33.92;18.90;;;;;;;;;;4991177;28;20084;-76
2024/03/05 09:17:02;;;;;;;29.45;17.60;;;;;;;;;;4992569;28;20487;-76
2024/03/05 09:19:28;;;;;;;31.88;17.48;;;;;;;;;;4997084;28;20030;-76
2024/03/05 09:21:53;;;;;;;29.53;18.57;;;;;;;;;;4991975;28;20026;-76
2024/03/05 09:24:18;;;;;;;26.95;17.25;;;;;;;;;;4994924;28;20346;-76
2024/03/05 09:26:43;;;;;;;32.35;17.90;;;;;;;;;;4991540;28;20034;-76
2024/03/05 09:29:08;;;;;;;26.38;16.15;;;;;;;;;;4993429;28;20026;-76
2024/03/05 09:31:34;;;;;;;26.73;16.88;;;;;;;;;;4993127;28;20027;-76
2024/03/05 09:34:00;;;;;;;30.65;17.25;;;;;;;;;;4992095;28;20504;-76
2024/03/05 09:36:25;;;;;;;28.65;17.70;;;;;;;;;;4992962;28;20034;-76
2024/03/05 09:38:50;;;;;;;26.20;16.35;;;;;;;;;;4995656;28;20111;-76
2024/03/05 09:41:16;;;;;;;27.85;16.40;;;;;;;;;;4992223;28;20038;-76
2024/03/05 09:43:41;;;;;;;28.08;16.52;;;;;;;;;;4991125;28;20026;-76
2024/03/05 09:46:07;;;;;;;32.33;21.45;;;;;;;;;;4991914;28;20035;-76
2024/03/05 09:48:37;;;;;;;42.03;25.52;;;;;;;;;;4991681;28;20745;-75
2024/03/05 09:51:06;;;;;;;43.17;25.33;;;;;;;;;;4991688;28;20034;-76
2024/03/05 09:53:31;;;;;;;32.35;18.92;;;;;;;;;;4991333;28;20038;-76
2024/03/05 09:55:57;;;;;;;25.95;15.50;;;;;;;;;;4991615;28;20473;-76
2024/03/05 09:58:32;;;;;;;22.38;14.48;;;;;;;;;;4995150;28;20032;-76
2024/03/05 10:00:59;;;;;;;25.73;15.05;;;;;;;;;;4990592;28;20791;-76
2024/03/05 10:03:24;;;;;;;28.23;16.45;;;;;;;;;;4992510;28;20033;-77
2024/03/05 10:05:50;;;;;;;29.98;17.67;;;;;;;;;;4995994;28;20034;-76
2024/03/05 10:08:15;;;;;;;25.95;16.25;;;;;;;;;;4992471;28;20062;-76
2024/03/05 10:10:43;;;;;;;25.02;15.07;;;;;;;;;;4991278;28;20084;-76
2024/03/05 10:13:08;;;;;;;23.77;15.70;;;;;;;;;;4991021;28;20034;-76
2024/03/05 10:15:37;;;;;;;38.47;23.90;;;;;;;;;;4990586;28;20045;-76
2024/03/05 10:18:02;;;;;;;28.20;17.35;;;;;;;;;;4989477;28;20750;-76
2024/03/05 10:20:28;;;;;;;22.50;14.32;;;;;;;;;;4991233;28;20038;-76
2024/03/05 10:22:54;;;;;;;24.70;16.83;;;;;;;;;;4993111;28;20045;-76
2024/03/05 10:25:20;;;;;;;21.95;13.50;;;;;;;;;;4989040;28;20037;-78
2024/03/05 10:27:46;;;;;;;25.05;13.95;;;;;;;;;;4988108;28;20419;-76
2024/03/05 10:30:19;;;;;;;19.65;12.25;;;;;;;;;;4992637;28;20042;-76
2024/03/05 10:32:50;;;;;;;21.30;13.25;;;;;;;;;;4992337;28;20041;-76
2024/03/05 10:35:15;;;;;;;24.42;14.65;;;;;;;;;;4992296;28;20030;-76
2024/03/05 10:37:40;;;;;;;21.63;12.93;;;;;;;;;;4994305;28;20038;-76
2024/03/05 10:40:09;;;;;;;22.67;13.30;;;;;;;;;;4994411;28;20118;-76
2024/03/05 10:42:37;;;;;;;23.70;14.85;;;;;;;;;;4990912;28;20034;-75
2024/03/05 10:45:03;;;;;;;19.73;12.52;;;;;;;;;;4990775;28;20502;-76
2024/03/05 10:47:29;;;;;;;19.90;12.15;;;;;;;;;;4992449;28;20026;-77
2024/03/05 10:49:54;;;;;;;19.73;11.75;;;;;;;;;;4994095;28;20108;-76
2024/03/05 10:52:22;;;;;;;19.23;12.63;;;;;;;;;;4990519;28;20057;-76
2024/03/05 10:54:48;;;;;;;15.45;10.27;;;;;;;;;;4990345;28;20088;-76
2024/03/05 10:57:13;;;;;;;16.25;9.15;;;;;;;;;;4990833;28;20082;-76
2024/03/05 10:59:47;;;;;;;14.80;10.40;;;;;;;;;;4992807;28;20034;-77
2024/03/05 11:02:14;;;;;;;18.58;10.93;;;;;;;;;;4989292;28;20037;-75
2024/03/05 11:04:42;;;;;;;16.95;10.07;;;;;;;;;;4990625;28;20030;-76
2024/03/05 11:07:10;;;;;;;17.27;11.25;;;;;;;;;;5000535;28;20495;-76
2024/03/05 11:09:36;;;;;;;19.00;11.15;;;;;;;;;;4994765;28;20038;-78
2024/03/05 11:12:03;;;;;;;18.88;10.30;;;;;;;;;;4990328;28;20554;-76
2024/03/05 11:14:29;;;;;;;18.15;9.88;;;;;;;;;;4989753;28;20068;-77
2024/03/05 11:16:57;;;;;;;15.55;9.13;;;;;;;;;;4986679;28;20101;-76
2024/03/05 11:19:22;;;;;;;19.25;12.80;;;;;;;;;;4996690;28;20098;-76
2024/03/05 11:21:47;;;;;;;17.83;11.83;;;;;;;;;;4989754;28;20126;-76
2024/03/05 11:24:12;;;;;;;17.17;9.87;;;;;;;;;;4990383;28;20281;-76
2024/03/05 11:26:39;;;;;;;19.27;10.80;;;;;;;;;;4992191;28;20308;-76
2024/03/05 11:29:08;;;;;;;20.42;10.85;;;;;;;;;;4993456;28;20766;-76
2024/03/05 11:31:33;;;;;;;19.35;12.98;;;;;;;;;;4989303;28;20069;-76
2024/03/05 11:34:02;;;;;;;21.40;13.00;;;;;;;;;;4992509;28;20072;-76
2024/03/05 11:36:29;;;;;;;19.98;11.10;;;;;;;;;;4990524;28;20065;-76
2024/03/05 11:38:55;;;;;;;17.48;10.68;;;;;;;;;;4990365;28;20042;-76
2024/03/05 11:41:24;;;;;;;17.55;9.40;;;;;;;;;;4988655;28;20022;-76
2024/03/05 11:43:50;;;;;;;18.10;9.25;;;;;;;;;;4990085;28;20121;-76
2024/03/05 11:46:35;;;;;;;16.53;9.67;;;;;;;;;;4990511;28;20125;-77
2024/03/05 11:49:00;;;;;;;18.65;10.77;;;;;;;;;;4991223;28;20361;-77
2024/03/05 11:51:26;;;;;;;14.50;9.57;;;;;;;;;;4989860;28;20450;-76
2024/03/05 11:53:51;;;;;;;19.48;12.90;;;;;;;;;;4989913;28;20034;-76
2024/03/05 11:56:18;;;;;;;16.52;11.65;;;;;;;;;;4990210;28;20553;-76
2024/03/05 11:58:43;;;;;;;23.15;12.60;;;;;;;;;;4996135;28;20538;-77
2024/03/05 12:01:08;;;;;;;21.47;12.43;;;;;;;;;;4989721;28;20110;-77
2024/03/05 12:03:34;;;;;;;17.20;10.90;;;;;;;;;;4990618;28;20300;-76
2024/03/05 12:05:59;;;;;;;21.17;12.80;;;;;;;;;;4990133;28;20096;-77
2024/03/05 12:08:24;;;;;;;18.25;10.90;;;;;;;;;;4996270;28;20402;-76
2024/03/05 12:10:51;;;;;;;19.80;10.80;;;;;;;;;;4996146;28;20034;-76
2024/03/05 12:13:18;;;;;;;17.23;10.25;;;;;;;;;;4993478;28;20050;-76
2024/03/05 12:15:43;;;;;;;26.98;15.98;;;;;;;;;;4992874;28;20026;-76
2024/03/05 12:18:10;;;;;;;26.30;16.90;;;;;;;;;;4996015;28;20080;-76
2024/03/05 12:20:36;;;;;;;30.58;17.45;;;;;;;;;;4993951;28;20281;-76
2024/03/05 12:23:03;;;;;;;27.00;18.65;;;;;;;;;;4993185;28;20022;-76
2024/03/05 12:25:28;;;;;;;18.60;13.27;;;;;;;;;;4996557;28;20034;-76
2024/03/05 12:27:53;;;;;;;16.90;9.68;;;;;;;;;;4993337;28;20034;-76
2024/03/05 12:30:19;;;;;;;14.95;10.07;;;;;;;;;;4994639;28;20034;-76
2024/03/05 12:32:51;;;;;;;15.13;8.20;;;;;;;;;;4993014;28;20038;-76
2024/03/05 12:35:18;;;;;;;;;;;;;;;;;;4993786;28;20097;-76
2024/03/05 12:37:43;;;;;;;12.55;6.85;;;;;;;;;;4993196;28;19913;-76
2024/03/05 12:40:18;;;;;;;15.57;7.72;;;;;;;;;;4996585;28;20026;-76
2024/03/05 12:42:47;;;;;;;13.15;6.78;;;;;;;;;;4995038;28;20029;-76
2024/03/05 12:45:15;;;;;;;11.35;6.50;;;;;;;;;;4988793;28;20031;-76
2024/03/05 12:47:40;;;;;;;12.20;5.80;;;;;;;;;;4993112;28;20584;-76
2024/03/05 12:50:06;;;;;;;11.80;6.28;;;;;;;;;;4994729;28;20030;-77
2024/03/05 12:52:31;;;;;;;11.85;6.18;;;;;;;;;;4989515;28;20026;-76
2024/03/05 12:54:58;;;;;;;15.07;6.33;;;;;;;;;;4994000;28;20038;-77
2024/03/05 12:57:26;;;;;;;10.75;6.25;;;;;;;;;;4990976;28;20717;-76
2024/03/05 12:59:51;;;;;;;11.57;6.53;;;;;;;;;;4994193;28;20038;-76
2024/03/05 13:02:16;;;;;;;18.35;5.65;;;;;;;;;;4992640;28;20034;-76
2024/03/05 13:04:41;;;;;;;10.67;5.63;;;;;;;;;;4992512;28;20104;-76
2024/03/05 13:07:06;;;;;;;11.52;5.72;;;;;;;;;;4992882;28;20281;-76
2024/03/05 13:09:32;;;;;;;13.60;6.45;;;;;;;;;;4995052;28;20030;-76
2024/03/05 13:11:57;;;;;;;14.15;6.20;;;;;;;;;;4993258;28;20027;-76
2024/03/05 13:14:22;;;;;;;9.15;5.75;;;;;;;;;;4992203;28;20034;-76
2024/03/05 13:16:48;;;;;;;11.13;6.00;;;;;;;;;;4991035;28;20034;-76
2024/03/05 13:19:13;;;;;;;10.25;6.00;;;;;;;;;;4994599;28;20027;-76
2024/03/05 13:21:42;;;;;;;11.15;6.30;;;;;;;;;;4991602;28;20128;-76
2024/03/05 13:24:08;;;;;;;11.93;6.57;;;;;;;;;;4990780;28;20109;-76
2024/03/05 13:26:33;;;;;;;13.48;6.57;;;;;;;;;;4985401;28;20110;-76
2024/03/05 13:29:00;;;;;;;14.43;6.25;;;;;;;;;;4995231;28;20463;-76
2024/03/05 13:31:25;;;;;;;15.90;6.22;;;;;;;;;;4992078;28;20109;-76
2024/03/05 13:33:52;;;;;;;20.15;7.15;;;;;;;;;;4991938;28;20123;-76
2024/03/05 13:36:17;;;;;;;11.93;6.18;;;;;;;;;;4992200;28;20034;-76
2024/03/05 13:38:43;;;;;;;13.77;6.43;;;;;;;;;;4993504;28;20029;-76
2024/03/05 13:41:08;;;;;;;16.50;5.50;;;;;;;;;;4991569;28;20084;-78
2024/03/05 13:43:34;;;;;;;13.25;7.00;;;;;;;;;;4993701;28;20127;-77
2024/03/05 13:46:00;;;;;;;11.52;6.57;;;;;;;;;;4991876;28;20053;-76
2024/03/05 13:48:26;;;;;;;11.85;7.10;;;;;;;;;;4993752;28;20099;-76
2024/03/05 13:50:52;;;;;;;11.30;7.18;;;;;;;;;;4992174;28;20568;-77
2024/03/05 13:53:20;;;;;;;12.10;7.15;;;;;;;;;;4990503;28;20050;-76
2024/03/05 13:55:45;;;;;;;16.13;7.95;;;;;;;;;;4991364;28;20577;-76
2024/03/05 13:58:14;;;;;;;12.77;6.32;;;;;;;;;;4989915;28;20145;-76
2024/03/05 14:00:40;;;;;;;14.68;8.20;;;;;;;;;;4986011;28;20050;-76
2024/03/05 14:03:12;;;;;;;15.02;7.07;;;;;;;;;;4993144;28;20041;-77
2024/03/05 14:05:37;;;;;;;11.02;6.15;;;;;;;;;;4991097;28;20484;-76
2024/03/05 14:08:03;;;;;;;11.07;6.15;;;;;;;;;;4992936;28;20033;-76
2024/03/05 14:10:29;;;;;;;11.90;6.35;;;;;;;;;;4991300;28;20045;-76
2024/03/05 14:12:54;;;;;;;14.23;6.63;;;;;;;;;;4988903;28;20101;-76
2024/03/05 14:15:19;;;;;;;12.18;5.38;;;;;;;;;;4989205;28;20181;-76
2024/03/05 14:17:45;;;;;;;9.65;5.68;;;;;;;;;;4990833;28;20113;-76